createdAt,value
2018-12-12T00:00:50.212Z,15.07
2018-12-12T00:03:16.741Z,17.70
2018-12-12T00:05:43.314Z,18.10
2018-12-12T00:08:09.908Z,12.47
2018-12-12T00:10:36.490Z,17.10
2018-12-12T00:13:03.193Z,18.57
2018-12-12T00:15:30.132Z,16.67
2018-12-12T00:17:57.035Z,17.27
2018-12-12T00:20:23.643Z,21.43
2018-12-12T00:22:50.006Z,17.63
2018-12-12T00:25:16.499Z,15.60
2018-12-12T00:27:42.994Z,16.23
2018-12-12T00:30:09.458Z,17.80
2018-12-12T00:32:38.794Z,16.40
2018-12-12T00:35:05.383Z,15.50
2018-12-12T00:37:31.971Z,16.17
2018-12-12T00:39:58.555Z,15.93
2018-12-12T00:42:25.267Z,19.47
2018-12-12T00:44:51.979Z,18.93
2018-12-12T00:47:18.455Z,16.33
2018-12-12T00:49:44.948Z,16.10
2018-12-12T00:52:11.545Z,17.00
2018-12-12T00:54:38.335Z,14.23
2018-12-12T00:57:04.958Z,15.70
2018-12-12T00:59:31.552Z,16.77
2018-12-12T01:01:58.250Z,17.43
2018-12-12T01:04:24.738Z,19.13
2018-12-12T01:06:51.323Z,13.67
2018-12-12T01:09:17.830Z,22.47
2018-12-12T01:11:46.335Z,13.00
2018-12-12T01:14:12.707Z,16.40
2018-12-12T01:16:39.082Z,13.60
2018-12-12T01:19:05.677Z,13.83
2018-12-12T01:21:32.395Z,18.70
2018-12-12T01:23:59.006Z,14.43
2018-12-12T01:26:25.507Z,15.73
2018-12-12T01:28:52.102Z,13.73
2018-12-12T01:31:18.699Z,16.97
2018-12-12T01:33:45.058Z,21.43
2018-12-12T01:36:11.656Z,16.40
2018-12-12T01:38:38.138Z,16.73
2018-12-12T01:41:04.735Z,16.13
2018-12-12T01:43:31.227Z,21.00
2018-12-12T01:45:57.820Z,17.53
2018-12-12T01:48:24.338Z,19.13
2018-12-12T01:50:50.690Z,16.43
2018-12-12T01:53:17.306Z,18.97
2018-12-12T01:55:43.887Z,15.87
2018-12-12T01:58:10.607Z,14.87
2018-12-12T02:00:37.470Z,19.47
2018-12-12T02:03:03.834Z,15.47
2018-12-12T02:05:30.395Z,18.93
2018-12-12T02:07:56.991Z,14.20
2018-12-12T02:10:23.767Z,16.43
2018-12-12T02:12:52.271Z,14.53
2018-12-12T02:15:18.782Z,12.83
2018-12-12T02:17:48.246Z,16.93
2018-12-12T02:20:14.714Z,14.27
2018-12-12T02:22:41.286Z,14.67
2018-12-12T02:25:08.018Z,15.97
2018-12-12T02:27:34.615Z,14.77
2018-12-12T02:30:01.001Z,17.43
2018-12-12T02:32:27.527Z,15.33
2018-12-12T02:34:54.119Z,16.97
2018-12-12T02:37:20.594Z,22.10
2018-12-12T02:39:47.218Z,16.10
2018-12-12T02:42:13.880Z,15.70
2018-12-12T02:44:40.605Z,15.17
2018-12-12T02:47:07.223Z,17.97
2018-12-12T02:49:33.981Z,15.13
2018-12-12T02:52:00.531Z,20.13
2018-12-12T02:54:27.101Z,18.20
2018-12-12T02:56:53.704Z,21.40
2018-12-12T02:59:20.286Z,15.97
2018-12-12T03:01:46.763Z,17.87
2018-12-12T03:04:13.213Z,22.80
2018-12-12T03:06:39.574Z,16.43
2018-12-12T03:09:06.146Z,22.03
2018-12-12T03:11:32.638Z,19.83
2018-12-12T03:13:59.330Z,20.47
2018-12-12T03:16:25.817Z,18.90
2018-12-12T03:18:52.703Z,18.40
2018-12-12T03:21:19.318Z,23.60
2018-12-12T03:23:45.731Z,21.17
2018-12-12T03:26:12.335Z,21.60
2018-12-12T03:28:38.822Z,23.23
2018-12-12T03:31:05.322Z,19.27
2018-12-12T03:33:31.907Z,22.27
2018-12-12T03:35:58.291Z,21.10
2018-12-12T03:38:24.869Z,19.73
2018-12-12T03:40:51.702Z,19.10
2018-12-12T03:43:18.195Z,22.57
2018-12-12T03:45:44.798Z,20.87
2018-12-12T03:48:11.391Z,22.70
2018-12-12T03:50:37.920Z,20.47
2018-12-12T03:53:04.383Z,20.53
2018-12-12T03:55:30.871Z,21.40
2018-12-12T03:57:57.655Z,25.50
2018-12-12T04:00:24.029Z,19.90
2018-12-12T04:02:50.851Z,22.53
2018-12-12T04:05:17.434Z,20.17
2018-12-12T04:07:44.139Z,21.37
2018-12-12T04:10:10.512Z,19.97
2018-12-12T04:12:37.113Z,23.30
2018-12-12T04:15:03.691Z,15.67
2018-12-12T04:17:30.292Z,28.37
2018-12-12T04:19:56.882Z,16.57
2018-12-12T04:22:23.562Z,23.67
2018-12-12T04:24:50.353Z,21.53
2018-12-12T04:27:16.946Z,16.27
2018-12-12T04:29:43.523Z,19.07
2018-12-12T04:32:10.237Z,17.30
2018-12-12T04:34:36.833Z,18.37
2018-12-12T04:37:03.515Z,16.80
2018-12-12T04:39:29.898Z,16.80
2018-12-12T04:41:56.413Z,21.40
2018-12-12T04:44:22.991Z,20.90
2018-12-12T04:46:49.585Z,20.57
2018-12-12T04:49:16.063Z,21.20
2018-12-12T04:51:42.786Z,17.03
2018-12-12T04:54:09.154Z,20.63
2018-12-12T04:56:35.509Z,20.33
2018-12-12T04:59:02.286Z,21.50
2018-12-12T05:01:28.872Z,17.33
2018-12-12T05:03:55.344Z,19.83
2018-12-12T05:06:21.827Z,20.90
2018-12-12T05:08:48.183Z,18.63
2018-12-12T05:11:14.774Z,23.07
2018-12-12T05:13:41.290Z,17.30
2018-12-12T05:16:07.886Z,20.80
2018-12-12T05:18:34.391Z,17.57
2018-12-12T05:21:00.875Z,20.40
2018-12-12T05:23:27.383Z,19.43
2018-12-12T05:25:53.748Z,18.33
2018-12-12T05:28:20.123Z,22.77
2018-12-12T05:30:46.738Z,19.00
2018-12-12T05:33:13.343Z,18.77
2018-12-12T05:35:39.931Z,18.10
2018-12-12T05:38:06.536Z,15.27
2018-12-12T05:40:33.325Z,18.73
2018-12-12T05:42:59.711Z,21.90
2018-12-12T05:45:26.388Z,17.97
2018-12-12T05:47:52.862Z,17.30
2018-12-12T05:50:19.245Z,20.83
2018-12-12T05:52:45.760Z,19.17
2018-12-12T05:55:12.234Z,18.23
2018-12-12T05:57:38.934Z,16.30
2018-12-12T06:00:06.139Z,16.07
2018-12-12T06:02:33.842Z,17.47
2018-12-12T06:05:00.343Z,16.30
2018-12-12T06:07:26.937Z,19.07
2018-12-12T06:09:55.787Z,17.37
2018-12-12T06:12:22.150Z,16.87
2018-12-12T06:14:48.757Z,19.43
2018-12-12T06:17:15.475Z,13.07
2018-12-12T06:19:42.556Z,20.10
2018-12-12T06:22:09.434Z,18.60
2018-12-12T06:24:36.243Z,16.50
2018-12-12T06:27:02.723Z,13.57
2018-12-12T06:29:29.318Z,13.50
2018-12-12T06:31:55.999Z,14.50
2018-12-12T06:34:22.610Z,12.03
2018-12-12T06:36:49.207Z,13.73
2018-12-12T06:39:15.807Z,15.27
2018-12-12T06:41:42.507Z,13.50
2018-12-12T06:44:09.239Z,15.00
2018-12-12T06:46:35.610Z,14.53
2018-12-12T06:49:02.087Z,13.37
2018-12-12T06:51:28.591Z,16.57
2018-12-12T06:53:55.291Z,13.93
2018-12-12T06:56:21.766Z,14.63
2018-12-12T06:58:51.276Z,17.47
2018-12-12T07:01:17.748Z,13.23
2018-12-12T07:03:44.330Z,14.13
2018-12-12T07:06:10.688Z,14.23
2018-12-12T07:08:37.042Z,12.67
2018-12-12T07:11:03.629Z,12.67
2018-12-12T07:13:35.710Z,13.70
2018-12-12T07:15:58.710Z,13.03
2018-12-12T07:18:25.071Z,13.73
2018-12-12T07:20:51.531Z,13.30
2018-12-12T07:23:18.007Z,14.80
2018-12-12T07:25:44.516Z,13.90
2018-12-12T07:28:10.865Z,12.80
2018-12-12T07:30:37.456Z,14.07
2018-12-12T07:33:03.918Z,12.20
2018-12-12T07:35:30.622Z,12.90
2018-12-12T07:37:56.987Z,11.73
2018-12-12T07:40:23.588Z,12.83
2018-12-12T07:42:50.058Z,14.80
2018-12-12T07:45:16.714Z,10.80
2018-12-12T07:47:43.483Z,10.57
2018-12-12T07:50:09.903Z,13.63
2018-12-12T07:52:36.610Z,15.57
2018-12-12T07:55:03.069Z,10.40
2018-12-12T07:57:29.666Z,12.73
2018-12-12T07:59:56.152Z,11.80
2018-12-12T08:02:22.843Z,12.13
2018-12-12T08:04:49.325Z,12.70
2018-12-12T08:07:15.923Z,12.40
2018-12-12T08:09:42.513Z,11.73
2018-12-12T08:12:09.878Z,13.13
2018-12-12T08:14:36.643Z,11.33
2018-12-12T08:17:03.260Z,11.60
2018-12-12T08:19:29.750Z,13.37
2018-12-12T08:21:56.234Z,9.50
2018-12-12T08:24:22.829Z,11.63
2018-12-12T08:26:49.430Z,10.83
2018-12-12T08:29:16.029Z,11.20
2018-12-12T08:31:42.797Z,11.87
2018-12-12T08:34:09.378Z,11.33
2018-12-12T08:36:36.093Z,9.40
2018-12-12T08:39:04.207Z,10.00
2018-12-12T08:41:30.708Z,9.60
2018-12-12T08:43:57.359Z,11.03
2018-12-12T08:46:23.751Z,10.20
2018-12-12T08:48:50.246Z,9.43
2018-12-12T08:51:16.727Z,10.70
2018-12-12T08:53:43.217Z,12.33
2018-12-12T08:56:09.703Z,6.93
2018-12-12T08:58:36.199Z,9.47
2018-12-12T09:01:02.825Z,6.63
2018-12-12T09:03:29.447Z,7.03
2018-12-12T09:05:55.954Z,8.07
2018-12-12T09:08:22.425Z,9.87
2018-12-12T09:10:49.087Z,8.57
2018-12-12T09:13:15.701Z,10.63
2018-12-12T09:15:42.302Z,10.47
2018-12-12T09:18:08.793Z,7.63
2018-12-12T09:20:35.371Z,11.87
2018-12-12T09:23:01.970Z,8.60
2018-12-12T09:25:28.425Z,9.53
2018-12-12T09:27:55.027Z,7.77
2018-12-12T09:30:21.381Z,7.50
2018-12-12T09:32:48.103Z,8.07
2018-12-12T09:35:14.682Z,10.60
2018-12-12T09:37:41.444Z,7.47
2018-12-12T09:40:07.904Z,8.53
2018-12-12T09:42:34.498Z,8.40
2018-12-12T09:45:01.153Z,15.40
2018-12-12T09:47:28.185Z,8.23
2018-12-12T09:49:54.994Z,11.70
2018-12-12T09:52:21.415Z,10.07
2018-12-12T09:54:48.016Z,10.80
2018-12-12T09:57:14.506Z,10.17
2018-12-12T09:59:40.994Z,7.43
2018-12-12T10:02:07.483Z,9.73
2018-12-12T10:04:33.996Z,7.47
2018-12-12T10:07:00.583Z,9.47
2018-12-12T10:09:28.255Z,8.10
2018-12-12T10:11:55.074Z,8.10
2018-12-12T10:14:21.826Z,8.00
2018-12-12T10:16:48.416Z,9.97
2018-12-12T10:19:15.019Z,8.60
2018-12-12T10:21:41.715Z,7.67
2018-12-12T10:24:08.302Z,7.70
2018-12-12T10:26:34.775Z,8.77
2018-12-12T10:29:01.375Z,8.53
2018-12-12T10:31:28.267Z,7.57
2018-12-12T10:33:54.772Z,6.80
2018-12-12T10:36:21.230Z,6.27
2018-12-12T10:38:47.590Z,7.53
2018-12-12T10:41:14.189Z,8.30
2018-12-12T10:43:40.666Z,5.77
2018-12-12T10:46:07.274Z,6.27
2018-12-12T10:48:33.902Z,8.97
2018-12-12T10:51:00.534Z,7.80
2018-12-12T10:53:27.018Z,6.03
2018-12-12T10:55:53.490Z,6.17
2018-12-12T10:58:20.086Z,7.87
2018-12-12T11:00:48.622Z,6.63
2018-12-12T11:03:17.166Z,7.60
2018-12-12T11:05:43.897Z,7.93
2018-12-12T11:08:10.478Z,8.90
2018-12-12T11:10:37.396Z,5.53
2018-12-12T11:13:03.862Z,11.80
2018-12-12T11:15:30.585Z,4.73
2018-12-12T11:17:57.064Z,6.17
2018-12-12T11:20:23.658Z,4.37
2018-12-12T11:22:50.127Z,6.53
2018-12-12T11:25:16.711Z,4.77
2018-12-12T11:27:43.219Z,5.47
2018-12-12T11:30:09.798Z,6.90
2018-12-12T11:32:36.299Z,9.80
2018-12-12T11:35:03.500Z,4.80
2018-12-12T11:37:30.040Z,5.67
2018-12-12T11:39:56.524Z,4.90
2018-12-12T11:42:23.010Z,6.93
2018-12-12T11:44:49.602Z,7.00
2018-12-12T11:47:16.091Z,5.07
2018-12-12T11:49:42.791Z,4.33
2018-12-12T11:52:09.174Z,4.63
2018-12-12T11:54:35.866Z,5.50
2018-12-12T11:57:02.666Z,5.17
2018-12-12T11:59:29.140Z,5.90
2018-12-12T12:01:55.635Z,5.63
2018-12-12T12:04:22.126Z,6.33
2018-12-12T12:06:48.626Z,6.03
2018-12-12T12:09:14.987Z,4.17
2018-12-12T12:11:41.793Z,4.80
2018-12-12T12:14:08.377Z,4.47
2018-12-12T12:16:34.978Z,5.70
2018-12-12T12:19:01.619Z,3.27
2018-12-12T12:21:28.214Z,3.43
2018-12-12T12:23:54.702Z,3.30
2018-12-12T12:26:21.271Z,2.83
2018-12-12T12:28:47.766Z,3.00
2018-12-12T12:31:14.247Z,4.87
2018-12-12T12:33:41.247Z,2.83
2018-12-12T12:36:09.443Z,2.73
2018-12-12T12:38:35.932Z,3.10
2018-12-12T12:41:02.411Z,2.50
2018-12-12T12:43:28.899Z,2.50
2018-12-12T12:45:55.392Z,2.83
2018-12-12T12:48:21.889Z,2.42
2018-12-12T12:50:48.482Z,2.98
2018-12-12T12:53:14.966Z,2.85
2018-12-12T12:55:41.458Z,2.52
2018-12-12T12:58:08.055Z,3.35
2018-12-12T13:00:34.654Z,2.60
2018-12-12T13:03:01.255Z,4.20
2018-12-12T13:05:27.849Z,3.77
2018-12-12T13:07:54.584Z,2.60
2018-12-12T13:10:21.384Z,3.07
2018-12-12T13:12:48.274Z,5.90
2018-12-12T13:15:15.263Z,4.13
2018-12-12T13:17:41.874Z,2.97
2018-12-12T13:20:08.571Z,5.40
2018-12-12T13:22:34.963Z,3.40
2018-12-12T13:25:01.563Z,3.47
2018-12-12T13:27:28.141Z,3.83
2018-12-12T13:29:54.740Z,4.63
2018-12-12T13:32:21.323Z,3.13
2018-12-12T13:34:47.931Z,4.43
2018-12-12T13:37:14.521Z,3.97
2018-12-12T13:39:40.893Z,3.03
2018-12-12T13:42:07.392Z,2.50
2018-12-12T13:44:34.099Z,2.23
2018-12-12T13:47:00.585Z,2.80
2018-12-12T13:49:27.184Z,2.50
2018-12-12T13:51:53.911Z,2.57
2018-12-12T13:54:20.406Z,2.50
2018-12-12T13:56:46.888Z,3.10
2018-12-12T13:59:13.498Z,4.27
2018-12-12T14:01:40.172Z,2.90
2018-12-12T14:04:06.766Z,2.87
2018-12-12T14:06:33.135Z,4.97
2018-12-12T14:08:59.723Z,4.53
2018-12-12T14:11:26.214Z,4.90
2018-12-12T14:13:52.914Z,5.17
2018-12-12T14:16:19.431Z,4.73
2018-12-12T14:18:46.018Z,4.13
2018-12-12T14:21:12.508Z,3.90
2018-12-12T14:23:39.094Z,4.43
2018-12-12T14:26:05.697Z,5.10
2018-12-12T14:28:32.197Z,3.07
2018-12-12T14:30:58.792Z,3.87
2018-12-12T14:33:25.370Z,3.87
2018-12-12T14:35:51.962Z,3.27
2018-12-12T14:38:18.346Z,2.73
2018-12-12T14:40:44.843Z,2.90
2018-12-12T14:43:11.430Z,2.50
2018-12-12T14:45:38.150Z,4.07
2018-12-12T14:48:04.636Z,5.07
2018-12-12T14:50:31.003Z,4.03
2018-12-12T14:52:57.355Z,3.80
2018-12-12T14:55:23.902Z,4.23
2018-12-12T14:57:50.490Z,3.97
2018-12-12T15:00:16.639Z,5.03
2018-12-12T15:02:43.258Z,4.60
2018-12-12T15:05:09.841Z,3.60
2018-12-12T15:07:36.546Z,6.90
2018-12-12T15:10:03.698Z,4.30
2018-12-12T15:12:30.296Z,3.10
2018-12-12T15:14:56.870Z,3.73
2018-12-12T15:17:23.362Z,4.77
2018-12-12T15:19:49.944Z,2.83
2018-12-12T15:22:16.563Z,3.47
2018-12-12T15:24:43.155Z,2.30
2018-12-12T15:27:09.510Z,2.47
2018-12-12T15:29:36.207Z,2.60
2018-12-12T15:32:03.004Z,3.07
2018-12-12T15:34:29.495Z,2.30
2018-12-12T15:36:55.978Z,3.23
2018-12-12T15:39:22.575Z,5.67
2018-12-12T15:41:49.175Z,3.07
2018-12-12T15:44:15.734Z,2.50
2018-12-12T15:46:42.324Z,2.90
2018-12-12T15:49:08.802Z,3.70
2018-12-12T15:51:35.319Z,3.30
2018-12-12T15:54:01.910Z,4.40
2018-12-12T15:56:28.490Z,3.27
2018-12-12T15:58:55.092Z,3.53
2018-12-12T16:01:21.783Z,3.37
2018-12-12T16:03:48.383Z,2.73
2018-12-12T16:06:14.743Z,2.60
2018-12-12T16:08:41.233Z,2.57
2018-12-12T16:11:08.421Z,3.17
2018-12-12T16:13:35.336Z,3.00
2018-12-12T16:16:01.822Z,2.33
2018-12-12T16:18:28.527Z,2.07
2018-12-12T16:20:55.006Z,2.50
2018-12-12T16:23:21.354Z,2.63
2018-12-12T16:25:47.950Z,2.50
2018-12-12T16:28:14.539Z,2.73
2018-12-12T16:30:41.243Z,2.30
2018-12-12T16:33:07.726Z,2.37
2018-12-12T16:35:34.308Z,2.20
2018-12-12T16:38:00.850Z,3.23
2018-12-12T16:40:27.313Z,3.17
2018-12-12T16:42:53.774Z,2.10
2018-12-12T16:45:20.374Z,2.70
2018-12-12T16:47:46.960Z,2.53
2018-12-12T16:50:13.339Z,2.43
2018-12-12T16:52:39.850Z,2.43
2018-12-12T16:55:06.347Z,2.80
2018-12-12T16:57:33.599Z,4.93
2018-12-12T17:00:00.325Z,2.27
2018-12-12T17:02:26.924Z,2.20
2018-12-12T17:04:53.626Z,2.23
2018-12-12T17:07:20.102Z,3.43
2018-12-12T17:09:46.739Z,4.20
2018-12-12T17:12:13.218Z,4.17
2018-12-12T17:14:39.710Z,5.43
2018-12-12T17:17:06.207Z,3.97
2018-12-12T17:19:32.698Z,4.10
2018-12-12T17:21:59.290Z,5.50
2018-12-12T17:24:25.749Z,3.37
2018-12-12T17:26:52.343Z,3.93
2018-12-12T17:29:18.842Z,4.60
2018-12-12T17:31:45.427Z,3.53
2018-12-12T17:34:11.907Z,4.27
2018-12-12T17:36:38.499Z,3.67
2018-12-12T17:39:05.390Z,4.73
2018-12-12T17:41:31.918Z,3.67
2018-12-12T17:43:58.617Z,5.47
2018-12-12T17:46:24.975Z,4.47
2018-12-12T17:48:51.458Z,4.37
2018-12-12T17:51:18.062Z,4.33
2018-12-12T17:53:44.417Z,5.70
2018-12-12T17:56:10.923Z,4.60
2018-12-12T17:58:37.399Z,4.20
2018-12-12T18:01:04.003Z,5.17
2018-12-12T18:03:30.492Z,4.63
2018-12-12T18:05:57.083Z,5.17
2018-12-12T18:08:23.770Z,6.47
2018-12-12T18:10:50.263Z,5.77
2018-12-12T18:13:16.901Z,6.13
2018-12-12T18:15:43.491Z,8.33
2018-12-12T18:18:10.000Z,7.67
2018-12-12T18:20:36.472Z,6.63
2018-12-12T18:23:03.088Z,9.57
2018-12-12T18:25:29.574Z,14.23
2018-12-12T18:27:56.066Z,9.03
2018-12-12T18:30:22.647Z,9.07
2018-12-12T18:32:49.246Z,6.53
2018-12-12T18:35:21.742Z,8.30
2018-12-12T18:37:44.336Z,6.57
2018-12-12T18:40:10.914Z,8.17
2018-12-12T18:42:37.584Z,6.70
2018-12-12T18:45:04.154Z,8.03
2018-12-12T18:47:30.863Z,6.53
2018-12-12T18:49:57.468Z,8.47
2018-12-12T18:52:24.066Z,7.63
2018-12-12T18:54:50.562Z,7.63
2018-12-12T18:57:17.158Z,7.00
2018-12-12T18:59:43.746Z,9.07
2018-12-12T19:02:10.255Z,16.43
2018-12-12T19:04:36.739Z,11.80
2018-12-12T19:07:03.198Z,9.10
2018-12-12T19:09:29.694Z,11.00
2018-12-12T19:11:56.186Z,8.70
2018-12-12T19:14:22.667Z,8.37
2018-12-12T19:16:49.146Z,12.17
2018-12-12T19:19:15.630Z,9.80
2018-12-12T19:21:42.106Z,10.80
2018-12-12T19:24:09.625Z,7.13
2018-12-12T19:26:35.995Z,10.93
2018-12-12T19:29:02.831Z,10.40
2018-12-12T19:31:29.425Z,8.87
2018-12-12T19:33:56.033Z,7.77
2018-12-12T19:36:25.197Z,15.60
2018-12-12T19:38:51.810Z,18.57
2018-12-12T19:41:18.279Z,22.97
2018-12-12T19:43:44.770Z,15.37
2018-12-12T19:46:11.254Z,22.57
2018-12-12T19:48:37.851Z,30.47
2018-12-12T19:51:04.463Z,19.13
2018-12-12T19:53:30.963Z,18.57
2018-12-12T19:55:57.478Z,16.03
2018-12-12T19:58:23.864Z,14.90
2018-12-12T20:00:50.446Z,18.47
2018-12-12T20:03:17.444Z,18.60
2018-12-12T20:05:43.938Z,18.77
2018-12-12T20:08:10.426Z,20.67
2018-12-12T20:10:36.804Z,20.03
2018-12-12T20:13:03.298Z,22.60
2018-12-12T20:15:31.727Z,18.93
2018-12-12T20:17:58.323Z,21.03
2018-12-12T20:20:24.823Z,18.23
2018-12-12T20:22:51.539Z,17.37
2018-12-12T20:25:18.141Z,12.17
2018-12-12T20:27:44.512Z,9.73
2018-12-12T20:30:11.186Z,8.50
2018-12-12T20:32:37.774Z,7.77
2018-12-12T20:35:04.511Z,8.40
2018-12-12T20:37:30.981Z,8.90
2018-12-12T20:39:57.481Z,10.00
2018-12-12T20:42:24.060Z,7.23
2018-12-12T20:44:50.553Z,10.90
2018-12-12T20:47:17.146Z,9.93
2018-12-12T20:49:43.750Z,14.43
2018-12-12T20:52:10.366Z,18.07
2018-12-12T20:54:36.951Z,18.57
2018-12-12T20:57:03.444Z,15.13
2018-12-12T20:59:29.945Z,21.97
2018-12-12T21:01:56.431Z,13.70
2018-12-12T21:04:22.968Z,12.47
2018-12-12T21:06:49.644Z,11.53
2018-12-12T21:09:16.126Z,10.07
2018-12-12T21:11:42.718Z,10.33
2018-12-12T21:14:09.247Z,10.67
2018-12-12T21:16:35.767Z,11.70
2018-12-12T21:19:02.253Z,15.67
2018-12-12T21:21:28.778Z,18.07
2018-12-12T21:23:55.358Z,16.00
2018-12-12T21:26:22.034Z,16.03
2018-12-12T21:28:48.526Z,14.17
2018-12-12T21:31:15.015Z,14.67
2018-12-12T21:33:41.507Z,12.00
2018-12-12T21:36:08.112Z,11.13
2018-12-12T21:38:34.594Z,14.40
2018-12-12T21:41:01.114Z,12.73
2018-12-12T21:43:27.514Z,11.87
2018-12-12T21:45:54.015Z,16.33
2018-12-12T21:48:20.504Z,15.10
2018-12-12T21:50:46.998Z,16.03
2018-12-12T21:53:13.496Z,16.80
2018-12-12T21:55:40.080Z,16.83
2018-12-12T21:58:06.674Z,16.27
2018-12-12T22:00:34.524Z,13.93
2018-12-12T22:03:01.237Z,17.00
2018-12-12T22:05:27.752Z,16.13
2018-12-12T22:07:54.351Z,17.27
2018-12-12T22:10:20.827Z,15.47
2018-12-12T22:12:47.305Z,15.37
2018-12-12T22:15:13.791Z,14.70
2018-12-12T22:17:40.263Z,12.87
2018-12-12T22:20:06.865Z,14.90
2018-12-12T22:22:33.504Z,16.63
2018-12-12T22:25:00.094Z,15.40
2018-12-12T22:27:26.797Z,13.50
2018-12-12T22:29:53.394Z,15.80
2018-12-12T22:32:19.886Z,14.90
2018-12-12T22:34:46.357Z,16.83
2018-12-12T22:37:12.847Z,13.93
2018-12-12T22:39:39.443Z,16.17
2018-12-12T22:42:06.034Z,16.43
2018-12-12T22:44:32.382Z,16.73
2018-12-12T22:46:59.715Z,13.80
2018-12-12T22:49:26.299Z,12.40
2018-12-12T22:51:52.658Z,15.60
2018-12-12T22:54:19.287Z,14.77
2018-12-12T22:56:45.874Z,15.67
2018-12-12T22:59:12.380Z,15.90
2018-12-12T23:01:38.872Z,15.00
2018-12-12T23:04:05.529Z,16.37
2018-12-12T23:06:31.887Z,17.07
2018-12-12T23:08:58.261Z,15.30
2018-12-12T23:11:25.489Z,16.87
2018-12-12T23:13:52.196Z,15.10
2018-12-12T23:16:18.795Z,15.03
2018-12-12T23:18:45.428Z,14.27
2018-12-12T23:21:11.902Z,14.03
2018-12-12T23:23:38.575Z,16.13
2018-12-12T23:26:04.971Z,17.20
2018-12-12T23:28:31.562Z,13.27
2018-12-12T23:30:58.255Z,15.43
2018-12-12T23:33:24.850Z,12.87
2018-12-12T23:35:51.426Z,15.60
2018-12-12T23:38:17.813Z,15.87
2018-12-12T23:40:44.419Z,14.80
2018-12-12T23:43:10.882Z,15.10
2018-12-12T23:45:37.482Z,15.47
2018-12-12T23:48:03.973Z,16.33
2018-12-12T23:50:30.655Z,17.03
2018-12-12T23:52:57.132Z,16.43
2018-12-12T23:55:23.754Z,17.07
2018-12-12T23:57:50.333Z,17.37
